sensor_id;sensor_type;location;lat;lon;timestamp;pressure;altitude;pressure_sealevel;temperature;humidity
18022;BME280;9136;48.822;7.966;2023-03-22T00:01:07;100070.75;;;8.51;100.00
18022;BME280;9136;48.822;7.966;2023-03-22T00:03:56;100071.03;;;8.40;100.00
18022;BME280;9136;48.822;7.966;2023-03-22T00:06:44;100051.25;;;8.27;100.00
18022;BME280;9136;48.822;7.966;2023-03-22T00:09:32;100079.69;;;8.42;100.00
18022;BME280;9136;48.822;7.966;2023-03-22T00:12:20;100069.38;;;8.36;100.00
18022;BME280;9136;48.822;7.966;2023-03-22T00:15:10;100059.09;;;8.27;100.00
18022;BME280;9136;48.822;7.966;2023-03-22T00:17:58;100043.06;;;8.07;100.00
18022;BME280;9136;48.822;7.966;2023-03-22T00:20:47;100062.28;;;8.06;100.00
18022;BME280;9136;48.822;7.966;2023-03-22T00:23:35;100064.97;;;8.02;100.00
18022;BME280;9136;48.822;7.966;2023-03-22T00:26:23;100044.69;;;7.77;100.00
18022;BME280;9136;48.822;7.966;2023-03-22T00:29:11;100068.03;;;7.84;100.00
18022;BME280;9136;48.822;7.966;2023-03-22T00:32:00;100059.50;;;7.76;100.00
18022;BME280;9136;48.822;7.966;2023-03-22T00:34:48;100086.91;;;7.97;100.00
18022;BME280;9136;48.822;7.966;2023-03-22T00:37:36;100043.34;;;7.96;100.00
18022;BME280;9136;48.822;7.966;2023-03-22T00:40:24;100021.13;;;8.12;100.00
18022;BME280;9136;48.822;7.966;2023-03-22T00:43:12;100043.31;;;8.31;100.00
18022;BME280;9136;48.822;7.966;2023-03-22T00:46:00;100050.44;;;8.25;100.00
18022;BME280;9136;48.822;7.966;2023-03-22T00:48:50;100044.72;;;8.09;100.00
18022;BME280;9136;48.822;7.966;2023-03-22T00:51:37;100028.84;;;7.81;100.00
18022;BME280;9136;48.822;7.966;2023-03-22T00:54:25;100049.13;;;7.73;100.00
18022;BME280;9136;48.822;7.966;2023-03-22T00:57:13;100033.09;;;7.50;100.00
18022;BME280;9136;48.822;7.966;2023-03-22T01:00:02;100046.22;;;7.48;100.00
18022;BME280;9136;48.822;7.966;2023-03-22T01:02:55;100019.88;;;7.57;100.00
18022;BME280;9136;48.822;7.966;2023-03-22T01:05:46;100015.50;;;7.58;100.00
18022;BME280;9136;48.822;7.966;2023-03-22T01:08:35;100009.00;;;7.74;100.00
18022;BME280;9136;48.822;7.966;2023-03-22T01:11:24;99994.63;;;7.92;100.00
18022;BME280;9136;48.822;7.966;2023-03-22T01:14:12;100022.72;;;8.18;100.00
18022;BME280;9136;48.822;7.966;2023-03-22T01:17:00;99995.00;;;8.11;100.00
18022;BME280;9136;48.822;7.966;2023-03-22T01:19:48;99986.94;;;8.18;100.00
18022;BME280;9136;48.822;7.966;2023-03-22T01:22:38;99976.22;;;8.27;100.00
18022;BME280;9136;48.822;7.966;2023-03-22T01:25:26;100019.94;;;8.56;100.00
18022;BME280;9136;48.822;7.966;2023-03-22T01:28:13;99969.47;;;8.20;100.00
18022;BME280;9136;48.822;7.966;2023-03-22T01:31:05;99977.66;;;8.07;100.00
18022;BME280;9136;48.822;7.966;2023-03-22T01:33:52;99991.53;;;8.09;100.00
18022;BME280;9136;48.822;7.966;2023-03-22T01:36:40;99970.91;;;7.98;100.00
18022;BME280;9136;48.822;7.966;2023-03-22T01:39:29;100006.91;;;8.22;100.00
18022;BME280;9136;48.822;7.966;2023-03-22T01:42:18;99968.09;;;8.06;100.00
18022;BME280;9136;48.822;7.966;2023-03-22T01:45:41;99976.59;;;8.14;100.00
18022;BME280;9136;48.822;7.966;2023-03-22T01:48:32;99969.56;;;8.16;100.00
18022;BME280;9136;48.822;7.966;2023-03-22T01:51:21;99989.44;;;8.23;100.00
18022;BME280;9136;48.822;7.966;2023-03-22T01:54:15;99968.88;;;8.09;100.00
18022;BME280;9136;48.822;7.966;2023-03-22T01:57:05;99966.25;;;8.09;100.00
18022;BME280;9136;48.822;7.966;2023-03-22T01:59:53;99959.97;;;8.16;100.00
18022;BME280;9136;48.822;7.966;2023-03-22T02:02:42;99998.88;;;8.28;100.00
18022;BME280;9136;48.822;7.966;2023-03-22T02:05:31;99970.13;;;8.27;100.00
18022;BME280;9136;48.822;7.966;2023-03-22T02:08:20;99983.16;;;8.30;100.00
18022;BME280;9136;48.822;7.966;2023-03-22T02:11:13;99956.63;;;8.10;100.00
18022;BME280;9136;48.822;7.966;2023-03-22T02:17:40;99972.41;;;8.41;100.00
18022;BME280;9136;48.822;7.966;2023-03-22T02:20:59;99988.38;;;8.63;100.00
18022;BME280;9136;48.822;7.966;2023-03-22T02:27:38;99962.13;;;8.64;100.00
18022;BME280;9136;48.822;7.966;2023-03-22T02:30:53;99994.31;;;8.99;100.00
18022;BME280;9136;48.822;7.966;2023-03-22T02:34:16;99996.03;;;9.00;100.00
18022;BME280;9136;48.822;7.966;2023-03-22T02:37:36;99971.06;;;8.88;100.00
18022;BME280;9136;48.822;7.966;2023-03-22T02:40:34;99968.44;;;8.88;100.00
18022;BME280;9136;48.822;7.966;2023-03-22T02:43:33;99959.09;;;8.78;100.00
18022;BME280;9136;48.822;7.966;2023-03-22T02:46:27;99957.38;;;8.78;100.00
18022;BME280;9136;48.822;7.966;2023-03-22T02:49:21;99946.66;;;8.86;100.00
18022;BME280;9136;48.822;7.966;2023-03-22T02:52:17;99967.91;;;9.05;100.00
18022;BME280;9136;48.822;7.966;2023-03-22T02:55:10;99979.16;;;9.08;100.00
18022;BME280;9136;48.822;7.966;2023-03-22T02:58:05;99968.91;;;9.01;100.00
18022;BME280;9136;48.822;7.966;2023-03-22T03:00:56;99968.13;;;8.99;100.00
18022;BME280;9136;48.822;7.966;2023-03-22T03:03:48;99955.34;;;8.86;100.00
18022;BME280;9136;48.822;7.966;2023-03-22T03:06:42;99964.63;;;8.98;100.00
18022;BME280;9136;48.822;7.966;2023-03-22T03:09:32;99969.53;;;9.09;100.00
18022;BME280;9136;48.822;7.966;2023-03-22T03:12:22;99970.47;;;9.06;100.00
18022;BME280;9136;48.822;7.966;2023-03-22T03:15:15;99967.97;;;9.03;100.00
18022;BME280;9136;48.822;7.966;2023-03-22T03:18:18;99969.78;;;9.01;100.00
18022;BME280;9136;48.822;7.966;2023-03-22T03:21:19;99972.88;;;8.84;100.00
18022;BME280;9136;48.822;7.966;2023-03-22T03:24:19;99953.75;;;8.53;100.00
18022;BME280;9136;48.822;7.966;2023-03-22T03:27:13;99990.78;;;8.70;100.00
18022;BME280;9136;48.822;7.966;2023-03-22T03:30:08;99962.44;;;8.53;100.00
18022;BME280;9136;48.822;7.966;2023-03-22T03:33:02;99970.31;;;8.53;100.00
18022;BME280;9136;48.822;7.966;2023-03-22T03:35:55;99971.47;;;8.43;100.00
18022;BME280;9136;48.822;7.966;2023-03-22T03:38:49;99964.59;;;8.39;100.00
18022;BME280;9136;48.822;7.966;2023-03-22T03:41:40;99972.16;;;8.50;100.00
18022;BME280;9136;48.822;7.966;2023-03-22T03:44:30;99963.81;;;8.36;100.00
18022;BME280;9136;48.822;7.966;2023-03-22T03:47:19;99963.66;;;8.42;100.00
18022;BME280;9136;48.822;7.966;2023-03-22T03:50:10;99975.66;;;8.49;100.00
18022;BME280;9136;48.822;7.966;2023-03-22T03:52:59;99974.69;;;8.53;100.00
18022;BME280;9136;48.822;7.966;2023-03-22T03:55:47;99954.53;;;8.55;100.00
18022;BME280;9136;48.822;7.966;2023-03-22T03:58:35;99957.84;;;8.62;100.00
18022;BME280;9136;48.822;7.966;2023-03-22T04:01:22;99991.44;;;8.77;100.00
18022;BME280;9136;48.822;7.966;2023-03-22T04:04:11;99979.34;;;8.73;100.00
18022;BME280;9136;48.822;7.966;2023-03-22T04:07:04;99989.50;;;8.83;100.00
18022;BME280;9136;48.822;7.966;2023-03-22T04:09:51;99953.22;;;8.71;100.00
18022;BME280;9136;48.822;7.966;2023-03-22T04:12:39;99957.66;;;8.68;100.00
18022;BME280;9136;48.822;7.966;2023-03-22T04:15:27;99963.59;;;8.74;100.00
18022;BME280;9136;48.822;7.966;2023-03-22T04:18:15;99953.97;;;8.75;100.00
18022;BME280;9136;48.822;7.966;2023-03-22T04:21:03;99957.72;;;8.66;100.00
18022;BME280;9136;48.822;7.966;2023-03-22T04:23:52;99959.31;;;8.72;100.00
18022;BME280;9136;48.822;7.966;2023-03-22T04:26:41;99943.09;;;8.59;100.00
18022;BME280;9136;48.822;7.966;2023-03-22T04:29:28;99954.78;;;8.77;100.00
18022;BME280;9136;48.822;7.966;2023-03-22T04:32:21;99930.63;;;8.67;100.00
18022;BME280;9136;48.822;7.966;2023-03-22T04:35:10;99942.69;;;8.73;100.00
18022;BME280;9136;48.822;7.966;2023-03-22T04:37:57;99931.47;;;8.68;100.00
18022;BME280;9136;48.822;7.966;2023-03-22T04:40:47;99942.50;;;8.79;100.00
18022;BME280;9136;48.822;7.966;2023-03-22T04:43:35;99933.03;;;8.75;100.00
18022;BME280;9136;48.822;7.966;2023-03-22T04:46:24;99952.00;;;8.83;100.00
18022;BME280;9136;48.822;7.966;2023-03-22T04:49:12;99936.59;;;8.72;100.00
18022;BME280;9136;48.822;7.966;2023-03-22T04:52:00;99926.72;;;8.52;100.00
18022;BME280;9136;48.822;7.966;2023-03-22T04:54:48;99925.75;;;8.55;100.00
18022;BME280;9136;48.822;7.966;2023-03-22T04:57:37;99940.28;;;8.65;100.00
18022;BME280;9136;48.822;7.966;2023-03-22T05:00:25;99942.78;;;8.70;100.00
18022;BME280;9136;48.822;7.966;2023-03-22T05:03:15;99951.34;;;8.75;100.00
18022;BME280;9136;48.822;7.966;2023-03-22T05:06:06;99944.34;;;8.75;100.00
18022;BME280;9136;48.822;7.966;2023-03-22T05:08:54;99946.16;;;8.73;100.00
18022;BME280;9136;48.822;7.966;2023-03-22T05:11:43;99951.22;;;8.79;100.00
18022;BME280;9136;48.822;7.966;2023-03-22T05:14:32;99928.19;;;8.61;100.00
18022;BME280;9136;48.822;7.966;2023-03-22T05:17:20;99951.25;;;8.78;100.00
18022;BME280;9136;48.822;7.966;2023-03-22T05:20:09;99950.38;;;8.79;100.00
18022;BME280;9136;48.822;7.966;2023-03-22T05:22:56;99934.03;;;8.71;100.00
18022;BME280;9136;48.822;7.966;2023-03-22T05:25:49;99969.69;;;8.75;100.00
18022;BME280;9136;48.822;7.966;2023-03-22T05:28:37;99931.03;;;8.53;100.00
18022;BME280;9136;48.822;7.966;2023-03-22T05:31:26;99957.22;;;8.53;100.00
18022;BME280;9136;48.822;7.966;2023-03-22T05:34:15;99964.16;;;8.54;100.00
18022;BME280;9136;48.822;7.966;2023-03-22T05:37:02;99949.19;;;8.27;100.00
18022;BME280;9136;48.822;7.966;2023-03-22T05:39:50;99952.63;;;8.29;100.00
18022;BME280;9136;48.822;7.966;2023-03-22T05:42:40;99967.19;;;8.39;100.00
18022;BME280;9136;48.822;7.966;2023-03-22T05:45:28;99972.59;;;8.33;100.00
18022;BME280;9136;48.822;7.966;2023-03-22T05:48:18;99973.66;;;8.26;100.00
18022;BME280;9136;48.822;7.966;2023-03-22T05:51:06;99964.53;;;8.08;100.00
18022;BME280;9136;48.822;7.966;2023-03-22T05:53:54;99988.03;;;8.10;100.00
18022;BME280;9136;48.822;7.966;2023-03-22T05:56:42;99952.06;;;7.85;100.00
18022;BME280;9136;48.822;7.966;2023-03-22T05:59:31;99962.28;;;7.94;100.00
18022;BME280;9136;48.822;7.966;2023-03-22T06:02:19;99990.66;;;8.10;100.00
18022;BME280;9136;48.822;7.966;2023-03-22T06:05:09;99976.75;;;8.08;100.00
18022;BME280;9136;48.822;7.966;2023-03-22T06:07:57;99986.16;;;8.15;100.00
18022;BME280;9136;48.822;7.966;2023-03-22T06:10:48;99959.19;;;8.13;100.00
18022;BME280;9136;48.822;7.966;2023-03-22T06:13:36;99949.63;;;8.12;100.00
18022;BME280;9136;48.822;7.966;2023-03-22T06:16:24;99984.78;;;8.34;100.00
18022;BME280;9136;48.822;7.966;2023-03-22T06:19:11;99951.91;;;8.24;100.00
18022;BME280;9136;48.822;7.966;2023-03-22T06:22:00;99973.31;;;8.40;100.00
18022;BME280;9136;48.822;7.966;2023-03-22T06:24:48;99964.63;;;8.38;100.00
18022;BME280;9136;48.822;7.966;2023-03-22T06:27:36;99971.22;;;8.52;100.00
18022;BME280;9136;48.822;7.966;2023-03-22T06:30:24;99969.31;;;8.57;100.00
18022;BME280;9136;48.822;7.966;2023-03-22T06:33:12;99971.84;;;8.60;100.00
18022;BME280;9136;48.822;7.966;2023-03-22T06:36:00;99962.31;;;8.58;100.00
18022;BME280;9136;48.822;7.966;2023-03-22T06:38:49;99978.41;;;8.75;100.00
18022;BME280;9136;48.822;7.966;2023-03-22T06:41:37;99958.41;;;8.73;100.00
18022;BME280;9136;48.822;7.966;2023-03-22T06:44:25;99979.41;;;9.01;100.00
18022;BME280;9136;48.822;7.966;2023-03-22T06:47:13;99972.34;;;9.03;100.00
18022;BME280;9136;48.822;7.966;2023-03-22T06:50:00;99981.22;;;9.27;100.00
18022;BME280;9136;48.822;7.966;2023-03-22T06:52:48;99994.00;;;9.37;100.00
18022;BME280;9136;48.822;7.966;2023-03-22T06:55:37;100012.56;;;9.58;100.00
18022;BME280;9136;48.822;7.966;2023-03-22T06:58:25;100009.78;;;9.62;100.00
18022;BME280;9136;48.822;7.966;2023-03-22T07:01:13;99989.03;;;9.56;100.00
18022;BME280;9136;48.822;7.966;2023-03-22T07:04:02;100010.59;;;9.64;100.00
18022;BME280;9136;48.822;7.966;2023-03-22T07:06:50;100000.97;;;9.65;100.00
18022;BME280;9136;48.822;7.966;2023-03-22T07:09:38;99998.16;;;9.71;100.00
18022;BME280;9136;48.822;7.966;2023-03-22T07:12:27;99983.97;;;9.77;100.00
18022;BME280;9136;48.822;7.966;2023-03-22T07:15:15;100010.50;;;9.94;100.00
18022;BME280;9136;48.822;7.966;2023-03-22T07:18:04;99996.81;;;9.86;100.00
18022;BME280;9136;48.822;7.966;2023-03-22T07:20:53;99975.34;;;9.73;100.00
18022;BME280;9136;48.822;7.966;2023-03-22T07:23:41;99976.97;;;9.77;100.00
18022;BME280;9136;48.822;7.966;2023-03-22T07:26:29;99975.09;;;9.81;100.00
18022;BME280;9136;48.822;7.966;2023-03-22T07:29:18;99982.09;;;10.07;100.00
18022;BME280;9136;48.822;7.966;2023-03-22T07:32:06;99992.94;;;10.22;100.00
18022;BME280;9136;48.822;7.966;2023-03-22T07:34:55;99975.25;;;10.27;100.00
18022;BME280;9136;48.822;7.966;2023-03-22T07:37:43;99985.06;;;10.47;100.00
18022;BME280;9136;48.822;7.966;2023-03-22T07:40:30;99985.69;;;10.77;100.00
18022;BME280;9136;48.822;7.966;2023-03-22T07:43:18;99986.88;;;11.15;100.00
18022;BME280;9136;48.822;7.966;2023-03-22T07:46:07;99994.16;;;11.53;100.00
18022;BME280;9136;48.822;7.966;2023-03-22T07:48:55;99973.94;;;11.75;100.00
18022;BME280;9136;48.822;7.966;2023-03-22T07:51:43;100011.56;;;11.77;100.00
18022;BME280;9136;48.822;7.966;2023-03-22T07:54:31;99999.47;;;11.73;100.00
18022;BME280;9136;48.822;7.966;2023-03-22T07:57:19;99979.41;;;11.70;100.00
18022;BME280;9136;48.822;7.966;2023-03-22T08:00:08;99996.53;;;12.02;100.00
18022;BME280;9136;48.822;7.966;2023-03-22T08:02:57;99970.66;;;12.12;100.00
18022;BME280;9136;48.822;7.966;2023-03-22T08:05:46;100000.22;;;12.39;100.00
18022;BME280;9136;48.822;7.966;2023-03-22T08:08:35;99989.63;;;12.41;100.00
18022;BME280;9136;48.822;7.966;2023-03-22T08:11:23;99995.63;;;12.63;100.00
18022;BME280;9136;48.822;7.966;2023-03-22T08:14:11;100003.88;;;12.76;100.00
18022;BME280;9136;48.822;7.966;2023-03-22T08:16:59;99990.75;;;12.93;100.00
18022;BME280;9136;48.822;7.966;2023-03-22T08:19:48;99976.84;;;12.89;100.00
18022;BME280;9136;48.822;7.966;2023-03-22T08:22:36;99979.44;;;12.91;100.00
18022;BME280;9136;48.822;7.966;2023-03-22T08:25:24;99982.22;;;12.88;100.00
18022;BME280;9136;48.822;7.966;2023-03-22T08:28:11;99956.50;;;12.74;100.00
18022;BME280;9136;48.822;7.966;2023-03-22T08:31:01;99952.94;;;12.75;100.00
18022;BME280;9136;48.822;7.966;2023-03-22T08:33:49;99968.69;;;12.96;100.00
18022;BME280;9136;48.822;7.966;2023-03-22T08:36:38;99993.91;;;13.20;100.00
18022;BME280;9136;48.822;7.966;2023-03-22T08:39:26;99976.31;;;13.21;100.00
18022;BME280;9136;48.822;7.966;2023-03-22T08:42:13;99984.19;;;13.22;100.00
18022;BME280;9136;48.822;7.966;2023-03-22T08:45:02;99962.84;;;13.27;100.00
18022;BME280;9136;48.822;7.966;2023-03-22T08:47:50;99977.16;;;13.21;100.00
18022;BME280;9136;48.822;7.966;2023-03-22T08:50:38;99979.44;;;13.29;100.00
18022;BME280;9136;48.822;7.966;2023-03-22T08:53:27;99985.56;;;13.29;100.00
18022;BME280;9136;48.822;7.966;2023-03-22T08:56:14;99980.09;;;13.34;100.00
18022;BME280;9136;48.822;7.966;2023-03-22T08:59:04;99950.13;;;13.16;100.00
18022;BME280;9136;48.822;7.966;2023-03-22T09:01:53;99948.81;;;13.26;100.00
18022;BME280;9136;48.822;7.966;2023-03-22T09:04:41;99946.13;;;13.45;100.00
18022;BME280;9136;48.822;7.966;2023-03-22T09:07:28;99960.13;;;13.64;100.00
18022;BME280;9136;48.822;7.966;2023-03-22T09:10:18;99960.53;;;13.74;100.00
18022;BME280;9136;48.822;7.966;2023-03-22T09:13:05;99933.72;;;13.64;100.00
18022;BME280;9136;48.822;7.966;2023-03-22T09:15:53;99940.94;;;13.78;100.00
18022;BME280;9136;48.822;7.966;2023-03-22T09:18:42;99935.59;;;13.97;100.00
18022;BME280;9136;48.822;7.966;2023-03-22T09:21:30;99931.31;;;14.12;100.00
18022;BME280;9136;48.822;7.966;2023-03-22T09:24:18;99936.03;;;14.22;100.00
18022;BME280;9136;48.822;7.966;2023-03-22T09:27:07;99929.66;;;14.26;100.00
18022;BME280;9136;48.822;7.966;2023-03-22T09:29:55;99944.34;;;14.32;100.00
18022;BME280;9136;48.822;7.966;2023-03-22T09:32:50;99952.38;;;14.48;100.00
18022;BME280;9136;48.822;7.966;2023-03-22T09:35:41;99947.00;;;14.65;100.00
18022;BME280;9136;48.822;7.966;2023-03-22T09:38:34;99934.72;;;14.64;100.00
18022;BME280;9136;48.822;7.966;2023-03-22T09:41:24;99914.78;;;14.74;97.21
18022;BME280;9136;48.822;7.966;2023-03-22T09:44:20;99905.84;;;14.93;97.07
18022;BME280;9136;48.822;7.966;2023-03-22T09:47:14;99914.97;;;15.18;92.80
18022;BME280;9136;48.822;7.966;2023-03-22T09:50:10;99912.69;;;15.58;89.53
18022;BME280;9136;48.822;7.966;2023-03-22T09:52:59;99904.22;;;15.67;81.56
18022;BME280;9136;48.822;7.966;2023-03-22T09:55:54;99913.28;;;15.93;81.62
18022;BME280;9136;48.822;7.966;2023-03-22T09:58:49;99922.44;;;16.32;77.40
18022;BME280;9136;48.822;7.966;2023-03-22T10:01:44;99924.97;;;16.34;76.43
18022;BME280;9136;48.822;7.966;2023-03-22T10:04:41;99904.31;;;16.10;74.80
18022;BME280;9136;48.822;7.966;2023-03-22T10:07:45;99884.91;;;15.95;75.22
18022;BME280;9136;48.822;7.966;2023-03-22T10:10:41;99908.59;;;16.13;67.35
18022;BME280;9136;48.822;7.966;2023-03-22T10:13:33;99905.00;;;16.14;73.33
18022;BME280;9136;48.822;7.966;2023-03-22T10:16:26;99893.50;;;15.99;69.98
18022;BME280;9136;48.822;7.966;2023-03-22T10:19:23;99907.44;;;16.17;70.73
18022;BME280;9136;48.822;7.966;2023-03-22T10:22:15;99896.84;;;16.17;68.66
18022;BME280;9136;48.822;7.966;2023-03-22T10:25:05;99898.63;;;16.59;66.24
18022;BME280;9136;48.822;7.966;2023-03-22T10:27:53;99893.53;;;16.84;65.81
18022;BME280;9136;48.822;7.966;2023-03-22T10:30:41;99871.16;;;16.88;64.05
18022;BME280;9136;48.822;7.966;2023-03-22T10:33:36;99890.16;;;17.09;59.71
18022;BME280;9136;48.822;7.966;2023-03-22T10:36:29;99878.22;;;17.02;60.39
18022;BME280;9136;48.822;7.966;2023-03-22T10:39:29;99891.66;;;17.40;59.94
18022;BME280;9136;48.822;7.966;2023-03-22T10:42:20;99899.13;;;17.48;61.55
18022;BME280;9136;48.822;7.966;2023-03-22T10:45:13;99875.88;;;17.25;61.03
18022;BME280;9136;48.822;7.966;2023-03-22T10:48:04;99892.03;;;17.61;58.88
18022;BME280;9136;48.822;7.966;2023-03-22T10:50:54;99874.31;;;17.74;59.98
18022;BME280;9136;48.822;7.966;2023-03-22T10:53:46;99875.97;;;18.15;54.34
18022;BME280;9136;48.822;7.966;2023-03-22T10:56:33;99858.72;;;18.96;50.03
18022;BME280;9136;48.822;7.966;2023-03-22T10:59:40;99870.66;;;20.08;46.93
18022;BME280;9136;48.822;7.966;2023-03-22T11:02:30;99861.13;;;20.50;45.84
18022;BME280;9136;48.822;7.966;2023-03-22T11:05:21;99849.25;;;20.66;44.12
18022;BME280;9136;48.822;7.966;2023-03-22T11:08:12;99863.41;;;21.64;41.87
18022;BME280;9136;48.822;7.966;2023-03-22T11:11:04;99856.03;;;20.58;43.22
18022;BME280;9136;48.822;7.966;2023-03-22T11:13:57;99844.38;;;20.60;43.14
18022;BME280;9136;48.822;7.966;2023-03-22T11:16:50;99841.16;;;21.63;41.59
18022;BME280;9136;48.822;7.966;2023-03-22T11:19:40;99863.97;;;21.67;40.71
18022;BME280;9136;48.822;7.966;2023-03-22T11:22:32;99856.28;;;21.53;40.94
18022;BME280;9136;48.822;7.966;2023-03-22T11:25:26;99835.38;;;22.31;38.41
18022;BME280;9136;48.822;7.966;2023-03-22T11:28:18;99835.41;;;21.15;40.51
18022;BME280;9136;48.822;7.966;2023-03-22T11:31:11;99854.66;;;21.62;40.65
18022;BME280;9136;48.822;7.966;2023-03-22T11:34:00;99857.69;;;21.25;40.41
18022;BME280;9136;48.822;7.966;2023-03-22T11:36:48;99857.03;;;22.27;38.72
18022;BME280;9136;48.822;7.966;2023-03-22T11:39:45;99828.53;;;22.47;38.56
18022;BME280;9136;48.822;7.966;2023-03-22T11:42:34;99818.69;;;22.57;38.39
18022;BME280;9136;48.822;7.966;2023-03-22T11:45:26;99820.50;;;21.65;39.92
18022;BME280;9136;48.822;7.966;2023-03-22T11:48:18;99837.50;;;21.43;40.05
18022;BME280;9136;48.822;7.966;2023-03-22T11:51:09;99829.69;;;20.09;42.02
18022;BME280;9136;48.822;7.966;2023-03-22T11:54:03;99820.34;;;20.37;42.19
18022;BME280;9136;48.822;7.966;2023-03-22T11:56:54;99831.22;;;21.22;41.63
18022;BME280;9136;48.822;7.966;2023-03-22T11:59:54;99837.75;;;22.24;39.02
18022;BME280;9136;48.822;7.966;2023-03-22T12:02:47;99808.25;;;21.31;40.41
18022;BME280;9136;48.822;7.966;2023-03-22T12:05:38;99817.78;;;19.80;43.35
18022;BME280;9136;48.822;7.966;2023-03-22T12:08:39;99812.97;;;21.59;41.09
18022;BME280;9136;48.822;7.966;2023-03-22T12:11:33;99795.97;;;23.40;37.18
18022;BME280;9136;48.822;7.966;2023-03-22T12:14:25;99792.94;;;22.76;37.57
18022;BME280;9136;48.822;7.966;2023-03-22T12:17:19;99799.66;;;21.27;40.04
18022;BME280;9136;48.822;7.966;2023-03-22T12:20:18;99799.22;;;22.46;37.16
18022;BME280;9136;48.822;7.966;2023-03-22T12:23:15;99786.03;;;21.30;39.26
18022;BME280;9136;48.822;7.966;2023-03-22T12:26:05;99782.31;;;20.90;40.52
18022;BME280;9136;48.822;7.966;2023-03-22T12:28:56;99777.75;;;20.69;40.28
18022;BME280;9136;48.822;7.966;2023-03-22T12:31:51;99759.22;;;19.56;42.84
18022;BME280;9136;48.822;7.966;2023-03-22T12:34:46;99759.50;;;18.94;44.29
18022;BME280;9136;48.822;7.966;2023-03-22T12:37:38;99756.50;;;19.09;44.90
18022;BME280;9136;48.822;7.966;2023-03-22T12:40:31;99746.13;;;20.42;41.56
18022;BME280;9136;48.822;7.966;2023-03-22T12:43:31;99735.66;;;21.26;39.16
18022;BME280;9136;48.822;7.966;2023-03-22T12:46:22;99760.22;;;21.20;40.28
18022;BME280;9136;48.822;7.966;2023-03-22T12:49:19;99730.06;;;21.80;39.00
18022;BME280;9136;48.822;7.966;2023-03-22T12:52:13;99725.06;;;21.03;40.35
18022;BME280;9136;48.822;7.966;2023-03-22T12:55:03;99724.06;;;20.51;42.32
18022;BME280;9136;48.822;7.966;2023-03-22T12:57:52;99712.06;;;20.57;41.81
18022;BME280;9136;48.822;7.966;2023-03-22T13:00:42;99735.16;;;19.91;41.87
18022;BME280;9136;48.822;7.966;2023-03-22T13:03:37;99712.75;;;20.59;39.01
18022;BME280;9136;48.822;7.966;2023-03-22T13:06:33;99726.34;;;21.41;37.47
18022;BME280;9136;48.822;7.966;2023-03-22T13:09:41;99714.00;;;20.33;37.17
18022;BME280;9136;48.822;7.966;2023-03-22T13:12:33;99702.16;;;19.58;37.37
18022;BME280;9136;48.822;7.966;2023-03-22T13:15:30;99714.88;;;19.55;37.87
18022;BME280;9136;48.822;7.966;2023-03-22T13:18:36;99706.44;;;19.61;38.24
18022;BME280;9136;48.822;7.966;2023-03-22T13:21:26;99715.25;;;20.06;37.85
18022;BME280;9136;48.822;7.966;2023-03-22T13:24:20;99716.91;;;20.52;36.58
18022;BME280;9136;48.822;7.966;2023-03-22T13:27:12;99698.63;;;20.25;36.04
18022;BME280;9136;48.822;7.966;2023-03-22T13:30:02;99709.19;;;20.04;36.70
18022;BME280;9136;48.822;7.966;2023-03-22T13:32:56;99681.84;;;19.80;37.22
18022;BME280;9136;48.822;7.966;2023-03-22T13:35:49;99656.16;;;19.67;36.96
18022;BME280;9136;48.822;7.966;2023-03-22T13:38:42;99699.25;;;20.06;36.77
18022;BME280;9136;48.822;7.966;2023-03-22T13:41:31;99676.75;;;19.77;35.96
18022;BME280;9136;48.822;7.966;2023-03-22T13:44:26;99664.69;;;20.27;35.51
18022;BME280;9136;48.822;7.966;2023-03-22T13:47:44;99669.53;;;20.22;35.45
18022;BME280;9136;48.822;7.966;2023-03-22T13:50:32;99671.19;;;19.80;36.27
18022;BME280;9136;48.822;7.966;2023-03-22T13:53:26;99696.13;;;20.01;36.67
18022;BME280;9136;48.822;7.966;2023-03-22T13:56:29;99677.44;;;20.12;36.83
18022;BME280;9136;48.822;7.966;2023-03-22T13:59:23;99684.97;;;19.85;36.86
18022;BME280;9136;48.822;7.966;2023-03-22T14:02:16;99638.00;;;19.61;37.31
18022;BME280;9136;48.822;7.966;2023-03-22T14:05:13;99663.56;;;19.64;36.71
18022;BME280;9136;48.822;7.966;2023-03-22T14:08:03;99663.41;;;19.77;36.51
18022;BME280;9136;48.822;7.966;2023-03-22T14:10:55;99642.81;;;19.67;35.94
18022;BME280;9136;48.822;7.966;2023-03-22T14:13:49;99656.16;;;19.90;35.27
18022;BME280;9136;48.822;7.966;2023-03-22T14:16:40;99653.75;;;20.30;35.36
18022;BME280;9136;48.822;7.966;2023-03-22T14:19:29;99638.34;;;20.34;34.54
18022;BME280;9136;48.822;7.966;2023-03-22T14:22:26;99655.94;;;20.25;34.10
18022;BME280;9136;48.822;7.966;2023-03-22T14:25:19;99655.72;;;20.28;34.59
18022;BME280;9136;48.822;7.966;2023-03-22T14:28:08;99660.91;;;20.29;32.74
18022;BME280;9136;48.822;7.966;2023-03-22T14:30:57;99673.69;;;20.04;33.25
18022;BME280;9136;48.822;7.966;2023-03-22T14:33:45;99652.38;;;19.92;33.97
18022;BME280;9136;48.822;7.966;2023-03-22T14:36:35;99648.78;;;20.48;34.21
18022;BME280;9136;48.822;7.966;2023-03-22T14:39:31;99637.91;;;20.61;33.14
18022;BME280;9136;48.822;7.966;2023-03-22T14:42:25;99651.53;;;20.78;32.89
18022;BME280;9136;48.822;7.966;2023-03-22T14:45:16;99678.38;;;20.77;31.85
18022;BME280;9136;48.822;7.966;2023-03-22T14:48:12;99624.16;;;20.65;32.98
18022;BME280;9136;48.822;7.966;2023-03-22T14:51:03;99626.41;;;21.02;32.74
18022;BME280;9136;48.822;7.966;2023-03-22T14:53:53;99654.91;;;20.80;32.43
18022;BME280;9136;48.822;7.966;2023-03-22T14:56:43;99638.41;;;20.11;33.09
18022;BME280;9136;48.822;7.966;2023-03-22T14:59:32;99626.88;;;20.22;33.45
18022;BME280;9136;48.822;7.966;2023-03-22T15:02:25;99636.63;;;20.44;33.74
18022;BME280;9136;48.822;7.966;2023-03-22T15:05:17;99631.31;;;20.44;33.84
18022;BME280;9136;48.822;7.966;2023-03-22T15:08:08;99642.19;;;20.09;33.75
18022;BME280;9136;48.822;7.966;2023-03-22T15:10:58;99626.13;;;20.31;34.26
18022;BME280;9136;48.822;7.966;2023-03-22T15:13:50;99632.66;;;20.38;33.94
18022;BME280;9136;48.822;7.966;2023-03-22T15:16:40;99633.41;;;20.29;33.67
18022;BME280;9136;48.822;7.966;2023-03-22T15:19:36;99629.97;;;20.49;33.66
18022;BME280;9136;48.822;7.966;2023-03-22T15:22:26;99632.78;;;20.25;33.98